createdAt,value
2018-09-06T00:01:22.705Z,12.17
2018-09-06T00:03:51.869Z,12.23
2018-09-06T00:06:21.018Z,12.37
2018-09-06T00:08:50.121Z,12.70
2018-09-06T00:11:26.097Z,11.57
2018-09-06T00:13:55.214Z,12.20
2018-09-06T00:16:24.451Z,11.07
2018-09-06T00:18:53.471Z,12.40
2018-09-06T00:21:23.079Z,11.40
2018-09-06T00:23:52.199Z,11.30
2018-09-06T00:26:21.327Z,17.10
2018-09-06T00:28:50.469Z,11.07
2018-09-06T00:31:19.533Z,12.03
2018-09-06T00:33:48.578Z,10.83
2018-09-06T00:36:17.673Z,12.10
2018-09-06T00:38:46.814Z,11.83
2018-09-06T00:41:15.921Z,12.83
2018-09-06T00:43:45.153Z,11.03
2018-09-06T00:46:14.772Z,12.10
2018-09-06T00:48:44.009Z,11.33
2018-09-06T00:51:13.136Z,11.90
2018-09-06T00:53:42.292Z,11.27
2018-09-06T00:56:11.417Z,11.50
2018-09-06T00:58:40.603Z,12.63
2018-09-06T01:01:09.692Z,12.70
2018-09-06T01:03:39.040Z,12.13
2018-09-06T01:06:08.133Z,12.90
2018-09-06T01:08:37.296Z,13.83
2018-09-06T01:11:06.412Z,13.03
2018-09-06T01:13:35.503Z,13.13
2018-09-06T01:16:05.791Z,13.00
2018-09-06T01:18:35.257Z,13.40
2018-09-06T01:21:04.354Z,13.63
2018-09-06T01:23:34.051Z,13.93
2018-09-06T01:26:03.176Z,12.50
2018-09-06T01:28:32.272Z,13.50
2018-09-06T01:31:01.989Z,13.07
2018-09-06T01:33:31.154Z,12.50
2018-09-06T01:36:05.495Z,12.37
2018-09-06T01:38:34.694Z,17.00
2018-09-06T01:41:03.744Z,13.70
2018-09-06T01:43:32.852Z,13.73
2018-09-06T01:46:02.453Z,12.67
2018-09-06T01:48:31.521Z,16.33
2018-09-06T01:51:00.667Z,13.57
2018-09-06T01:53:29.987Z,15.30
2018-09-06T01:55:59.092Z,14.67
2018-09-06T01:58:28.181Z,14.73
2018-09-06T02:00:57.390Z,14.53
2018-09-06T02:03:26.596Z,15.23
2018-09-06T02:05:55.691Z,13.80
2018-09-06T02:08:25.217Z,13.70
2018-09-06T02:10:54.306Z,15.50
2018-09-06T02:13:23.439Z,13.43
2018-09-06T02:15:53.238Z,13.60
2018-09-06T02:18:22.346Z,14.73
2018-09-06T02:20:52.216Z,18.40
2018-09-06T02:23:21.399Z,13.27
2018-09-06T02:25:50.528Z,14.37
2018-09-06T02:28:20.123Z,19.40
2018-09-06T02:30:49.184Z,14.00
2018-09-06T02:33:18.565Z,13.67
2018-09-06T02:35:47.704Z,16.37
2018-09-06T02:38:16.799Z,15.73
2018-09-06T02:40:45.842Z,14.13
2018-09-06T02:43:15.016Z,14.80
2018-09-06T02:45:44.852Z,13.40
2018-09-06T02:48:13.985Z,12.57
2018-09-06T02:50:48.392Z,14.33
2018-09-06T02:53:17.481Z,13.50
2018-09-06T02:55:47.033Z,14.10
2018-09-06T02:58:16.691Z,14.73
2018-09-06T03:00:45.812Z,15.13
2018-09-06T03:03:14.879Z,16.87
2018-09-06T03:05:44.792Z,20.53
2018-09-06T03:08:13.885Z,13.80
2018-09-06T03:10:44.493Z,19.60
2018-09-06T03:13:13.655Z,14.30
2018-09-06T03:15:42.957Z,14.70
2018-09-06T03:18:12.092Z,14.20
2018-09-06T03:20:41.246Z,13.90
2018-09-06T03:23:10.348Z,13.80
2018-09-06T03:25:39.437Z,14.93
2018-09-06T03:28:09.206Z,14.63
2018-09-06T03:30:38.302Z,15.27
2018-09-06T03:33:08.119Z,15.40
2018-09-06T03:35:37.924Z,15.80
2018-09-06T03:38:07.237Z,16.07
2018-09-06T03:40:36.323Z,16.30
2018-09-06T03:43:06.745Z,17.30
2018-09-06T03:45:35.830Z,17.60
2018-09-06T03:48:05.005Z,17.30
2018-09-06T03:50:34.452Z,22.53
2018-09-06T03:53:03.582Z,18.03
2018-09-06T03:55:32.647Z,20.07
2018-09-06T03:58:01.874Z,18.20
2018-09-06T04:00:31.489Z,16.33
2018-09-06T04:03:00.599Z,17.60
2018-09-06T04:05:30.648Z,16.80
2018-09-06T04:08:00.464Z,17.03
2018-09-06T04:10:33.200Z,20.13
2018-09-06T04:13:03.016Z,23.30
2018-09-06T04:15:32.232Z,17.60
2018-09-06T04:18:01.408Z,18.37
2018-09-06T04:20:31.190Z,17.40
2018-09-06T04:23:01.371Z,24.13
2018-09-06T04:25:30.468Z,16.20
2018-09-06T04:27:59.555Z,17.67
2018-09-06T04:30:29.380Z,18.00
2018-09-06T04:32:59.120Z,15.17
2018-09-06T04:35:30.478Z,16.47
2018-09-06T04:37:59.484Z,17.13
2018-09-06T04:40:28.618Z,19.70
2018-09-06T04:42:57.710Z,17.20
2018-09-06T04:45:26.812Z,17.90
2018-09-06T04:47:55.910Z,16.50
2018-09-06T04:50:25.020Z,19.90
2018-09-06T04:52:54.940Z,18.50
2018-09-06T04:55:24.102Z,16.83
2018-09-06T04:57:54.452Z,18.05
2018-09-06T05:00:23.594Z,16.60
2018-09-06T05:02:53.288Z,16.17
2018-09-06T05:05:22.453Z,19.97
2018-09-06T05:07:51.621Z,16.87
2018-09-06T05:10:22.006Z,15.93
2018-09-06T05:12:51.132Z,17.20
2018-09-06T05:15:20.713Z,16.23
2018-09-06T05:17:50.190Z,17.10
2018-09-06T05:20:19.871Z,18.23
2018-09-06T05:22:49.549Z,22.33
2018-09-06T05:25:18.688Z,17.10
2018-09-06T05:27:47.776Z,16.37
2018-09-06T05:30:16.952Z,18.80
2018-09-06T05:32:46.040Z,18.30
2018-09-06T05:35:15.305Z,20.43
2018-09-06T05:37:44.351Z,16.97
2018-09-06T05:40:14.353Z,18.67
2018-09-06T05:42:43.573Z,17.97
2018-09-06T05:45:12.699Z,18.93
2018-09-06T05:47:41.821Z,18.63
2018-09-06T05:50:10.956Z,18.43
2018-09-06T05:52:40.036Z,17.23
2018-09-06T05:55:09.148Z,22.20
2018-09-06T05:57:38.220Z,17.07
2018-09-06T06:00:13.250Z,16.30
2018-09-06T06:02:42.421Z,22.20
2018-09-06T06:05:11.715Z,17.07
2018-09-06T06:07:52.011Z,17.67
2018-09-06T06:10:21.123Z,17.60
2018-09-06T06:12:50.248Z,23.17
2018-09-06T06:15:19.387Z,18.10
2018-09-06T06:17:48.481Z,16.97
2018-09-06T06:20:18.469Z,18.97
2018-09-06T06:22:47.547Z,20.83
2018-09-06T06:25:17.283Z,18.87
2018-09-06T06:27:46.405Z,19.20
2018-09-06T06:30:16.428Z,21.37
2018-09-06T06:32:45.646Z,23.07
2018-09-06T06:35:14.757Z,26.90
2018-09-06T06:37:43.916Z,25.70
2018-09-06T06:40:13.685Z,21.37
2018-09-06T06:42:43.519Z,22.13
2018-09-06T06:45:12.753Z,19.77
2018-09-06T06:47:41.922Z,26.07
2018-09-06T06:50:11.273Z,19.10
2018-09-06T06:52:40.386Z,20.03
2018-09-06T06:55:09.664Z,19.27
2018-09-06T06:57:38.795Z,19.97
2018-09-06T07:00:07.993Z,19.57
2018-09-06T07:02:37.343Z,23.23
2018-09-06T07:05:06.509Z,21.80
2018-09-06T07:07:36.293Z,20.63
2018-09-06T07:10:05.457Z,23.70
2018-09-06T07:12:34.574Z,21.43
2018-09-06T07:15:03.760Z,19.57
2018-09-06T07:17:32.924Z,20.70
2018-09-06T07:20:02.154Z,20.73
2018-09-06T07:22:31.264Z,21.67
2018-09-06T07:25:00.461Z,19.00
2018-09-06T07:27:29.706Z,21.87
2018-09-06T07:29:59.647Z,20.93
2018-09-06T07:32:28.804Z,22.20
2018-09-06T07:34:58.066Z,22.07
2018-09-06T07:37:27.164Z,28.27
2018-09-06T07:39:56.249Z,21.23
2018-09-06T07:42:25.392Z,21.47
2018-09-06T07:44:54.513Z,20.97
2018-09-06T07:47:23.647Z,23.03
2018-09-06T07:49:52.796Z,22.47
2018-09-06T07:52:21.939Z,20.73
2018-09-06T07:54:51.027Z,21.03
2018-09-06T07:57:20.801Z,19.73
2018-09-06T07:59:50.214Z,16.87
2018-09-06T08:02:19.365Z,17.37
2018-09-06T08:04:49.405Z,24.30
2018-09-06T08:07:19.158Z,15.47
2018-09-06T08:09:48.260Z,14.07
2018-09-06T08:12:17.364Z,12.90
2018-09-06T08:14:46.492Z,11.67
2018-09-06T08:17:15.686Z,13.43
2018-09-06T08:19:45.528Z,12.93
2018-09-06T08:22:14.687Z,12.97
2018-09-06T08:24:43.843Z,11.90
2018-09-06T08:27:12.936Z,13.37
2018-09-06T08:29:42.068Z,12.80
2018-09-06T08:32:11.273Z,11.97
2018-09-06T08:34:40.448Z,12.40
2018-09-06T08:37:09.576Z,13.70
2018-09-06T08:39:38.697Z,14.27
2018-09-06T08:42:07.830Z,14.10
2018-09-06T08:44:37.011Z,15.77
2018-09-06T08:47:06.318Z,16.23
2018-09-06T08:49:35.359Z,16.20
2018-09-06T08:52:04.544Z,18.27
2018-09-06T08:54:33.616Z,15.73
2018-09-06T08:57:02.705Z,14.93
2018-09-06T08:59:31.928Z,12.97
2018-09-06T09:02:01.192Z,17.43
2018-09-06T09:04:30.320Z,14.43
2018-09-06T09:06:59.532Z,16.90
2018-09-06T09:09:28.684Z,12.60
2018-09-06T09:11:57.984Z,16.90
2018-09-06T09:14:27.145Z,15.90
2018-09-06T09:16:56.238Z,15.40
2018-09-06T09:19:25.414Z,16.10
2018-09-06T09:21:54.756Z,18.70
2018-09-06T09:24:24.020Z,16.90
2018-09-06T09:26:53.216Z,16.40
2018-09-06T09:29:23.165Z,16.97
2018-09-06T09:31:52.990Z,17.63
2018-09-06T09:34:22.093Z,17.10
2018-09-06T09:36:52.417Z,16.77
2018-09-06T09:39:21.544Z,18.27
2018-09-06T09:41:50.679Z,19.30
2018-09-06T09:44:19.841Z,18.30
2018-09-06T09:49:18.679Z,19.00
2018-09-06T09:51:48.397Z,19.77
2018-09-06T09:54:17.583Z,21.23
2018-09-06T09:56:46.885Z,23.40
2018-09-06T09:59:16.068Z,20.73
2018-09-06T10:01:50.605Z,22.70
2018-09-06T10:04:25.601Z,24.20
2018-09-06T10:07:00.037Z,28.97
2018-09-06T10:09:36.023Z,23.37
2018-09-06T10:12:05.333Z,26.50
2018-09-06T10:14:34.699Z,25.57
2018-09-06T10:17:04.408Z,29.50
2018-09-06T10:19:33.565Z,31.20
2018-09-06T10:22:03.495Z,30.90
2018-09-06T10:24:32.621Z,29.20
2018-09-06T10:27:02.589Z,31.17
2018-09-06T10:29:31.675Z,25.90
2018-09-06T10:32:00.863Z,26.50
2018-09-06T10:34:29.943Z,27.50
2018-09-06T10:36:59.987Z,33.13
2018-09-06T10:39:29.236Z,27.73
2018-09-06T10:41:58.364Z,29.93
2018-09-06T10:44:28.243Z,30.37
2018-09-06T10:46:57.452Z,28.07
2018-09-06T10:49:26.773Z,31.00
2018-09-06T10:51:55.879Z,31.03
2018-09-06T10:54:25.646Z,31.10
2018-09-06T10:56:54.896Z,30.70
2018-09-06T10:59:24.215Z,33.13
2018-09-06T11:01:53.608Z,30.87
2018-09-06T11:04:22.780Z,31.43
2018-09-06T11:06:51.944Z,33.80
2018-09-06T11:09:22.101Z,32.77
2018-09-06T11:11:51.244Z,34.27
2018-09-06T11:14:20.399Z,35.50
2018-09-06T11:16:50.600Z,36.40
2018-09-06T11:19:19.812Z,43.13
2018-09-06T11:21:49.690Z,33.33
2018-09-06T11:24:18.784Z,37.83
2018-09-06T11:26:49.295Z,35.10
2018-09-06T11:29:18.494Z,34.80
2018-09-06T11:31:47.659Z,34.13
2018-09-06T11:34:16.776Z,36.47
2018-09-06T11:36:46.040Z,35.93
2018-09-06T11:39:15.252Z,37.57
2018-09-06T11:41:44.464Z,42.43
2018-09-06T11:44:13.678Z,42.93
2018-09-06T11:46:42.854Z,43.40
2018-09-06T11:49:12.392Z,43.97
2018-09-06T11:51:42.724Z,43.87
2018-09-06T11:54:12.578Z,40.60
2018-09-06T11:56:42.365Z,38.77
2018-09-06T11:59:11.536Z,41.77
2018-09-06T12:01:40.791Z,38.77
2018-09-06T12:04:10.616Z,40.73
2018-09-06T12:06:39.845Z,47.30
2018-09-06T12:09:09.470Z,38.40
2018-09-06T12:11:38.724Z,37.50
2018-09-06T12:14:07.827Z,39.10
2018-09-06T12:16:37.180Z,42.90
2018-09-06T12:19:07.220Z,38.53
2018-09-06T12:21:36.375Z,42.13
2018-09-06T12:24:06.227Z,41.73
2018-09-06T12:26:35.371Z,36.87
2018-09-06T12:29:05.153Z,34.37
2018-09-06T12:31:34.382Z,34.57
2018-09-06T12:34:04.204Z,35.13
2018-09-06T12:36:33.492Z,34.90
2018-09-06T12:39:03.046Z,33.27
2018-09-06T12:41:32.345Z,34.00
2018-09-06T12:44:01.589Z,32.07
2018-09-06T12:46:30.953Z,35.53
2018-09-06T12:49:00.163Z,33.93
2018-09-06T12:51:29.465Z,30.57
2018-09-06T12:53:58.955Z,33.03
2018-09-06T12:56:28.216Z,31.77
2018-09-06T12:58:57.452Z,31.37
2018-09-06T13:01:26.643Z,33.97
2018-09-06T13:03:55.866Z,30.60
2018-09-06T13:06:25.033Z,30.73
2018-09-06T13:08:54.198Z,30.53
2018-09-06T13:11:23.399Z,32.27
2018-09-06T13:13:52.765Z,28.23
2018-09-06T13:16:22.106Z,28.20
2018-09-06T13:18:51.291Z,27.70
2018-09-06T13:21:22.449Z,26.63
2018-09-06T13:23:52.933Z,28.17
2018-09-06T13:26:22.080Z,28.80
2018-09-06T13:28:51.369Z,25.90
2018-09-06T13:31:20.840Z,27.57
2018-09-06T13:33:50.036Z,28.40
2018-09-06T13:36:19.156Z,22.70
2018-09-06T13:38:48.312Z,25.67
2018-09-06T13:41:17.565Z,25.80
2018-09-06T13:43:46.681Z,22.40
2018-09-06T13:46:15.800Z,23.00
2018-09-06T13:48:45.550Z,23.57
2018-09-06T13:51:14.786Z,23.37
2018-09-06T13:53:44.497Z,23.20
2018-09-06T13:56:13.662Z,20.90
2018-09-06T13:58:43.738Z,20.63
2018-09-06T14:01:12.979Z,22.20
2018-09-06T14:03:42.161Z,21.17
2018-09-06T14:06:11.492Z,22.43
2018-09-06T14:08:40.644Z,22.07
2018-09-06T14:11:09.905Z,22.67
2018-09-06T14:13:39.637Z,24.00
2018-09-06T14:16:08.893Z,28.93
2018-09-06T14:18:38.383Z,25.97
2018-09-06T14:21:08.140Z,28.07
2018-09-06T14:23:38.258Z,28.27
2018-09-06T14:26:07.410Z,26.07
2018-09-06T14:28:36.759Z,26.00
2018-09-06T14:31:05.928Z,26.20
2018-09-06T14:33:35.153Z,25.67
2018-09-06T14:36:05.094Z,26.50
2018-09-06T14:38:35.422Z,23.67
2018-09-06T14:41:04.590Z,25.43
2018-09-06T14:43:33.785Z,26.40
2018-09-06T14:46:03.000Z,26.83
2018-09-06T14:48:32.230Z,23.23
2018-09-06T14:51:01.344Z,24.60
2018-09-06T14:53:30.483Z,27.20
2018-09-06T14:56:00.244Z,27.80
2018-09-06T14:58:29.552Z,25.30
2018-09-06T15:00:59.246Z,24.53
2018-09-06T15:03:28.380Z,25.43
2018-09-06T15:05:57.604Z,25.53
2018-09-06T15:08:26.725Z,26.00
2018-09-06T15:10:56.018Z,25.33
2018-09-06T15:13:25.212Z,27.00
2018-09-06T15:15:55.185Z,25.73
2018-09-06T15:18:24.363Z,26.27
2018-09-06T15:20:53.483Z,26.27
2018-09-06T15:23:22.663Z,26.33
2018-09-06T15:25:51.840Z,26.90
2018-09-06T15:28:21.141Z,26.00
2018-09-06T15:30:50.300Z,26.73
2018-09-06T15:33:19.533Z,25.40
2018-09-06T15:35:48.688Z,26.40
2018-09-06T15:38:17.786Z,22.67
2018-09-06T15:40:47.340Z,26.00
2018-09-06T15:43:16.574Z,25.27
2018-09-06T15:45:45.841Z,26.40
2018-09-06T15:48:14.929Z,28.17
2018-09-06T15:50:44.003Z,28.20
2018-09-06T15:53:13.889Z,28.93
2018-09-06T15:55:43.155Z,27.13
2018-09-06T15:58:12.295Z,28.10
2018-09-06T16:00:41.424Z,29.10
2018-09-06T16:03:11.165Z,27.27
2018-09-06T16:05:40.720Z,28.70
2018-09-06T16:08:09.948Z,29.13
2018-09-06T16:10:40.201Z,28.20
2018-09-06T16:13:09.953Z,30.00
2018-09-06T16:15:39.080Z,30.87
2018-09-06T16:18:08.652Z,32.03
2018-09-06T16:20:37.853Z,29.37
2018-09-06T16:23:08.373Z,29.83
2018-09-06T16:25:38.258Z,31.07
2018-09-06T16:28:07.493Z,32.00
2018-09-06T16:30:36.664Z,35.13
2018-09-06T16:33:05.879Z,32.53
2018-09-06T16:35:35.309Z,30.43
2018-09-06T16:38:04.605Z,32.63
2018-09-06T16:40:33.761Z,36.40
2018-09-06T16:43:02.901Z,34.60
2018-09-06T16:45:32.105Z,32.37
2018-09-06T16:48:01.307Z,31.73
2018-09-06T16:50:30.464Z,34.20
2018-09-06T16:52:59.688Z,32.60
2018-09-06T16:55:29.228Z,32.20
2018-09-06T16:57:58.496Z,36.03
2018-09-06T17:00:27.656Z,31.60
2018-09-06T17:02:56.801Z,34.73
2018-09-06T17:05:26.067Z,35.23
2018-09-06T17:07:55.451Z,35.63
2018-09-06T17:10:24.681Z,36.63
2018-09-06T17:12:54.321Z,37.93
2018-09-06T17:15:23.442Z,39.60
2018-09-06T17:17:52.745Z,40.50
2018-09-06T17:20:21.871Z,36.77
2018-09-06T17:22:51.133Z,37.57
2018-09-06T17:25:20.425Z,42.10
2018-09-06T17:27:49.852Z,39.77
2018-09-06T17:30:19.117Z,40.43
2018-09-06T17:32:48.380Z,38.80
2018-09-06T17:35:17.912Z,43.13
2018-09-06T17:37:47.233Z,48.33
2018-09-06T17:40:16.353Z,46.50
2018-09-06T17:42:46.233Z,48.93
2018-09-06T17:45:15.529Z,48.43
2018-09-06T17:47:44.950Z,51.33
2018-09-06T17:50:14.071Z,51.03
2018-09-06T17:52:43.306Z,53.63
2018-09-06T17:55:12.742Z,53.80
2018-09-06T17:57:42.668Z,54.47
2018-09-06T18:00:13.023Z,55.77
2018-09-06T18:02:42.283Z,54.60
2018-09-06T18:05:11.608Z,54.27
2018-09-06T18:07:40.880Z,55.27
2018-09-06T18:10:11.032Z,65.50
2018-09-06T18:12:40.357Z,67.00
2018-09-06T18:15:10.187Z,73.87
2018-09-06T18:17:40.187Z,89.63
2018-09-06T18:20:09.216Z,88.37
2018-09-06T18:22:38.569Z,88.70
2018-09-06T18:25:07.814Z,94.27
2018-09-06T18:27:37.142Z,66.30
2018-09-06T18:30:06.468Z,50.13
2018-09-06T18:32:36.988Z,44.40
2018-09-06T18:35:06.232Z,38.20
2018-09-06T18:37:35.432Z,40.77
2018-09-06T18:40:05.267Z,38.53
2018-09-06T18:42:34.392Z,36.13
2018-09-06T18:45:03.700Z,38.73
2018-09-06T18:47:32.983Z,38.80
2018-09-06T18:50:02.167Z,37.83
2018-09-06T18:52:31.360Z,39.93
2018-09-06T18:55:00.637Z,39.33
2018-09-06T18:57:30.415Z,41.63
2018-09-06T18:59:59.687Z,41.57
2018-09-06T19:02:28.927Z,47.50
2018-09-06T19:04:58.076Z,47.03
2018-09-06T19:07:27.344Z,45.73
2018-09-06T19:09:56.626Z,49.60
2018-09-06T19:12:26.703Z,48.70
2018-09-06T19:14:55.976Z,45.53
2018-09-06T19:17:25.320Z,50.97
2018-09-06T19:19:54.957Z,51.23
2018-09-06T19:22:24.500Z,49.10
2018-09-06T19:24:53.804Z,55.67
2018-09-06T19:27:23.076Z,66.70
2018-09-06T19:29:52.360Z,61.13
2018-09-06T19:32:21.569Z,62.50
2018-09-06T19:34:50.788Z,66.73
2018-09-06T19:37:20.187Z,71.53
2018-09-06T19:39:49.897Z,76.60
2018-09-06T19:42:19.098Z,72.60
2018-09-06T19:44:48.234Z,77.87
2018-09-06T19:47:17.389Z,77.00
2018-09-06T19:49:46.823Z,84.83
2018-09-06T19:52:16.679Z,84.37
2018-09-06T19:54:46.455Z,78.40
2018-09-06T19:57:15.790Z,87.23
2018-09-06T19:59:45.168Z,82.33
2018-09-06T20:02:14.393Z,88.17
2018-09-06T20:04:43.726Z,101.00
2018-09-06T20:07:13.657Z,92.17
2018-09-06T20:09:42.833Z,97.40
2018-09-06T20:12:12.074Z,93.27
2018-09-06T20:14:41.821Z,89.57
2018-09-06T20:17:10.970Z,85.77
2018-09-06T20:19:40.341Z,80.20
2018-09-06T20:22:10.288Z,70.43
2018-09-06T20:24:39.446Z,63.90
2018-09-06T20:27:09.205Z,70.17
2018-09-06T20:29:38.487Z,66.07
2018-09-06T20:32:07.748Z,64.00
2018-09-06T20:34:37.989Z,58.50
2018-09-06T20:37:08.735Z,56.97
2018-09-06T20:39:39.374Z,61.23
2018-09-06T20:42:09.176Z,58.47
2018-09-06T20:44:38.608Z,54.90
2018-09-06T20:47:07.784Z,49.43
2018-09-06T20:49:36.972Z,46.97
2018-09-06T20:52:07.798Z,47.63
2018-09-06T20:54:37.006Z,46.40
2018-09-06T20:57:06.192Z,43.17
2018-09-06T20:59:35.335Z,37.27
2018-09-06T21:02:09.755Z,38.30
2018-09-06T21:04:38.960Z,31.80
2018-09-06T21:07:08.419Z,34.10
2018-09-06T21:09:37.593Z,31.10
2018-09-06T21:12:07.570Z,28.40
2018-09-06T21:14:36.811Z,31.50
2018-09-06T21:17:05.808Z,29.43
2018-09-06T21:19:35.018Z,28.20
2018-09-06T21:22:04.427Z,25.10
2018-09-06T21:24:33.843Z,22.30
2018-09-06T21:27:03.018Z,20.73
2018-09-06T21:29:32.104Z,22.17
2018-09-06T21:32:01.290Z,21.33
2018-09-06T21:34:30.935Z,19.33
2018-09-06T21:37:00.163Z,20.70
2018-09-06T21:39:29.284Z,18.37
2018-09-06T21:41:58.469Z,20.10
2018-09-06T21:44:27.612Z,17.97
2018-09-06T21:46:56.785Z,18.30
2018-09-06T21:49:25.957Z,18.17
2018-09-06T21:51:56.378Z,18.70
2018-09-06T21:54:25.600Z,19.03
2018-09-06T21:56:54.822Z,16.47
2018-09-06T21:59:23.912Z,18.93
2018-09-06T22:01:53.084Z,20.20
2018-09-06T22:04:22.169Z,19.47
2018-09-06T22:06:51.972Z,19.23
2018-09-06T22:09:21.092Z,18.40
2018-09-06T22:11:50.300Z,16.67
2018-09-06T22:14:19.439Z,18.07
2018-09-06T22:16:48.596Z,17.43
2018-09-06T22:19:17.767Z,17.63
2018-09-06T22:21:46.956Z,16.40
2018-09-06T22:24:16.157Z,16.70
2018-09-06T22:26:45.252Z,18.93
2018-09-06T22:29:14.372Z,18.50
2018-09-06T22:31:43.468Z,19.00
2018-09-06T22:34:12.672Z,18.30
2018-09-06T22:36:42.489Z,18.53
2018-09-06T22:39:11.658Z,21.30
2018-09-06T22:41:41.545Z,22.07
2018-09-06T22:44:11.227Z,21.67
2018-09-06T22:46:40.341Z,22.53
2018-09-06T22:49:09.484Z,22.00
2018-09-06T22:51:38.638Z,23.27
2018-09-06T22:54:07.778Z,23.27
2018-09-06T22:56:36.986Z,22.07
2018-09-06T22:59:12.639Z,24.00
2018-09-06T23:01:41.766Z,22.50
2018-09-06T23:04:10.865Z,19.13
2018-09-06T23:06:40.664Z,20.93
2018-09-06T23:09:09.763Z,20.17
2018-09-06T23:11:38.962Z,19.90
2018-09-06T23:14:08.083Z,25.30
2018-09-06T23:16:37.417Z,19.67
2018-09-06T23:19:06.589Z,20.00
2018-09-06T23:21:35.711Z,21.43
2018-09-06T23:24:05.367Z,19.60
2018-09-06T23:26:34.480Z,18.53
2018-09-06T23:29:03.609Z,19.63
2018-09-06T23:31:33.652Z,18.43
2018-09-06T23:34:02.759Z,18.63
2018-09-06T23:36:31.848Z,17.80
2018-09-06T23:39:01.571Z,17.83
2018-09-06T23:41:30.760Z,17.73
2018-09-06T23:43:59.868Z,18.50
2018-09-06T23:46:32.837Z,18.43
2018-09-06T23:49:01.956Z,19.23
2018-09-06T23:51:31.009Z,18.77
2018-09-06T23:54:00.153Z,18.40
2018-09-06T23:56:29.243Z,19.03
2018-09-06T23:58:58.445Z,20.30
